Etusivu
METAR-TAF:

METAR-TAF

Lentoasemat :

Yokota, Japani

Leveyspiiri: 35-45N, Pituuspiiri: 139-21E, korkeus merenpinnasta: 139 m

Tämänhetkinen sää

Tämä raportti tehtiin 14 minuuttia sitten, kello 18.56 UTC
Tuuli 6 kn lännestä/luoteesta
Lämpötila 7°C
Kosteus 61%
Ilmanpaine 1018 hPa
Näkyvyys: 16.1 km
selkeää

METAR: RJTY 191856Z AUTO 29006KT 10SM CLR 07/00 A3007 RMK AO2 SLP188 T00651005 FZRANO $

Aika: 04:10 (19:10 UTC)

Sääennuste

Tämä raportti tehtiin 6 tuntia ja 10 minuuttia sitten, kello 13.00 UTC
Ennuste voimassa 19. päivästä klo 13 UTC - 20. päivään klo 19 UTC
Tuuli 9 kn kaakosta
Näkyvyys: 2006 m
Muutamia pilviä 10000 ft:n korkeudessa
Ajoittain
20. päivästä klo 03 UTC - 20. päivään klo 09 UTC
Tuuli 10 kn kaakosta puuskistuen 15 kn:hen
Näkyvyys: 1921 m

TAF: RJTY 191300Z 1913/2019 VRB06KT 9999 FEW100 QNH2990INS WND 14009KT AFT 2006 TEMPO 2003/2009 14010G15KT TX18/2003Z TN03/1918Z LAST NO AMDS AFT 1913 NEXT 1921

Säähavainnot ja -ennusteet yli 4000 lentoasemalta (METAR- ja TAF-raportit).

Käytössä olevat sääasemat on merkitty karttaan keltaisilla ja punaisilla pisteillä.

Aseta hiiri pisteen päälle nähdäksesi sääaseman nimen.

Klikkaa sitten nähdäksesi säähavainnot ja -ennusteet.

Kartan vaihtaminen: klikkaa mustalla rastilla varustettuja vihreitä pisteitä, niin voit zoomata sisään; viivalla varustettua vihreää pistettä, niin voit zoomata ulos tai vihreitä nuolia, niin pääset viereisille kartoille.


METAR-TAF: